sensor_id;sensor_type;location;lat;lon;timestamp;temperature;humidity
54642;DHT22;40536;53.194;5.728;2023-06-22T00:00:52;16.80;99.90
54642;DHT22;40536;53.194;5.728;2023-06-22T00:03:19;16.80;99.90
54642;DHT22;40536;53.194;5.728;2023-06-22T00:05:46;16.80;99.90
54642;DHT22;40536;53.194;5.728;2023-06-22T00:08:12;16.80;99.90
54642;DHT22;40536;53.194;5.728;2023-06-22T00:10:38;16.80;99.90
54642;DHT22;40536;53.194;5.728;2023-06-22T00:13:05;16.80;99.90
54642;DHT22;40536;53.194;5.728;2023-06-22T00:15:31;16.70;99.90
54642;DHT22;40536;53.194;5.728;2023-06-22T00:17:56;16.70;99.90
54642;DHT22;40536;53.194;5.728;2023-06-22T00:20:23;16.70;99.90
54642;DHT22;40536;53.194;5.728;2023-06-22T00:22:56;16.60;99.90
54642;DHT22;40536;53.194;5.728;2023-06-22T00:25:22;16.60;99.90
54642;DHT22;40536;53.194;5.728;2023-06-22T00:27:48;16.60;99.90
54642;DHT22;40536;53.194;5.728;2023-06-22T00:30:15;16.60;99.90
54642;DHT22;40536;53.194;5.728;2023-06-22T00:32:42;16.60;99.90
54642;DHT22;40536;53.194;5.728;2023-06-22T00:35:07;16.60;99.90
54642;DHT22;40536;53.194;5.728;2023-06-22T00:37:34;16.60;99.90
54642;DHT22;40536;53.194;5.728;2023-06-22T00:40:01;16.60;99.90
54642;DHT22;40536;53.194;5.728;2023-06-22T00:42:27;16.60;99.90
54642;DHT22;40536;53.194;5.728;2023-06-22T00:44:53;16.50;99.90
54642;DHT22;40536;53.194;5.728;2023-06-22T00:47:18;16.60;99.90
54642;DHT22;40536;53.194;5.728;2023-06-22T00:49:45;16.50;99.90
54642;DHT22;40536;53.194;5.728;2023-06-22T00:52:12;16.40;99.90
54642;DHT22;40536;53.194;5.728;2023-06-22T00:54:47;16.40;99.90
54642;DHT22;40536;53.194;5.728;2023-06-22T00:57:14;16.30;99.90
54642;DHT22;40536;53.194;5.728;2023-06-22T00:59:44;16.30;99.90
54642;DHT22;40536;53.194;5.728;2023-06-22T01:02:10;16.20;99.90
54642;DHT22;40536;53.194;5.728;2023-06-22T01:04:37;16.20;99.90
54642;DHT22;40536;53.194;5.728;2023-06-22T01:07:21;16.20;99.90
54642;DHT22;40536;53.194;5.728;2023-06-22T01:10:43;16.20;99.90
54642;DHT22;40536;53.194;5.728;2023-06-22T01:16:05;16.10;99.90
54642;DHT22;40536;53.194;5.728;2023-06-22T01:18:35;16.00;99.90
54642;DHT22;40536;53.194;5.728;2023-06-22T01:21:04;16.00;99.90
54642;DHT22;40536;53.194;5.728;2023-06-22T01:23:58;16.00;99.90
54642;DHT22;40536;53.194;5.728;2023-06-22T01:26:36;15.90;99.90
54642;DHT22;40536;53.194;5.728;2023-06-22T01:29:04;15.90;99.90
54642;DHT22;40536;53.194;5.728;2023-06-22T01:31:31;15.90;99.90
54642;DHT22;40536;53.194;5.728;2023-06-22T01:34:03;15.80;99.90
54642;DHT22;40536;53.194;5.728;2023-06-22T01:36:31;15.80;99.90
54642;DHT22;40536;53.194;5.728;2023-06-22T01:38:58;15.80;99.90
54642;DHT22;40536;53.194;5.728;2023-06-22T01:41:29;15.70;99.90
54642;DHT22;40536;53.194;5.728;2023-06-22T01:43:55;15.70;99.90
54642;DHT22;40536;53.194;5.728;2023-06-22T01:46:22;15.70;99.90
54642;DHT22;40536;53.194;5.728;2023-06-22T01:48:57;15.70;99.90
54642;DHT22;40536;53.194;5.728;2023-06-22T01:51:23;15.60;99.90
54642;DHT22;40536;53.194;5.728;2023-06-22T01:53:49;15.60;99.90
54642;DHT22;40536;53.194;5.728;2023-06-22T01:56:18;15.60;99.90
54642;DHT22;40536;53.194;5.728;2023-06-22T01:58:57;15.60;99.90
54642;DHT22;40536;53.194;5.728;2023-06-22T02:01:28;15.60;99.90
54642;DHT22;40536;53.194;5.728;2023-06-22T02:04:03;15.60;99.90
54642;DHT22;40536;53.194;5.728;2023-06-22T02:06:34;15.60;99.90
54642;DHT22;40536;53.194;5.728;2023-06-22T02:09:07;15.60;99.90
54642;DHT22;40536;53.194;5.728;2023-06-22T02:11:35;15.60;99.90
54642;DHT22;40536;53.194;5.728;2023-06-22T02:14:02;15.60;99.90
54642;DHT22;40536;53.194;5.728;2023-06-22T02:16:28;15.50;99.90
54642;DHT22;40536;53.194;5.728;2023-06-22T02:18:56;15.50;99.90
54642;DHT22;40536;53.194;5.728;2023-06-22T02:21:29;15.50;99.90
54642;DHT22;40536;53.194;5.728;2023-06-22T02:23:55;15.50;99.90
54642;DHT22;40536;53.194;5.728;2023-06-22T02:26:21;15.50;99.90
54642;DHT22;40536;53.194;5.728;2023-06-22T02:28:47;15.50;99.90
54642;DHT22;40536;53.194;5.728;2023-06-22T02:31:13;15.60;99.90
54642;DHT22;40536;53.194;5.728;2023-06-22T02:33:38;15.50;99.90
54642;DHT22;40536;53.194;5.728;2023-06-22T02:36:04;15.50;99.90
54642;DHT22;40536;53.194;5.728;2023-06-22T02:38:31;15.50;99.90
54642;DHT22;40536;53.194;5.728;2023-06-22T02:41:00;15.50;99.90
54642;DHT22;40536;53.194;5.728;2023-06-22T02:43:26;15.60;99.90
54642;DHT22;40536;53.194;5.728;2023-06-22T02:45:52;15.50;99.90
54642;DHT22;40536;53.194;5.728;2023-06-22T02:48:17;15.50;99.90
54642;DHT22;40536;53.194;5.728;2023-06-22T02:50:43;15.50;99.90
54642;DHT22;40536;53.194;5.728;2023-06-22T02:53:09;15.50;99.90
54642;DHT22;40536;53.194;5.728;2023-06-22T02:55:35;15.60;99.90
54642;DHT22;40536;53.194;5.728;2023-06-22T02:58:01;15.60;99.90
54642;DHT22;40536;53.194;5.728;2023-06-22T03:00:31;15.60;99.90
54642;DHT22;40536;53.194;5.728;2023-06-22T03:02:57;15.60;99.90
54642;DHT22;40536;53.194;5.728;2023-06-22T03:05:23;15.70;99.90
54642;DHT22;40536;53.194;5.728;2023-06-22T03:07:49;15.70;99.90
54642;DHT22;40536;53.194;5.728;2023-06-22T03:10:16;15.80;99.90
54642;DHT22;40536;53.194;5.728;2023-06-22T03:12:43;15.80;99.90
54642;DHT22;40536;53.194;5.728;2023-06-22T03:15:12;15.70;99.90
54642;DHT22;40536;53.194;5.728;2023-06-22T03:17:39;15.70;99.90
54642;DHT22;40536;53.194;5.728;2023-06-22T03:20:06;15.70;99.90
54642;DHT22;40536;53.194;5.728;2023-06-22T03:22:36;15.70;99.90
54642;DHT22;40536;53.194;5.728;2023-06-22T03:25:02;15.70;99.90
54642;DHT22;40536;53.194;5.728;2023-06-22T03:27:28;15.70;99.90
54642;DHT22;40536;53.194;5.728;2023-06-22T03:29:54;15.60;99.90
54642;DHT22;40536;53.194;5.728;2023-06-22T03:32:19;15.80;99.90
54642;DHT22;40536;53.194;5.728;2023-06-22T03:34:45;15.70;99.90
54642;DHT22;40536;53.194;5.728;2023-06-22T03:37:13;15.70;99.90
54642;DHT22;40536;53.194;5.728;2023-06-22T03:39:40;15.70;99.90
54642;DHT22;40536;53.194;5.728;2023-06-22T03:42:06;15.70;99.90
54642;DHT22;40536;53.194;5.728;2023-06-22T03:44:32;15.70;99.90
54642;DHT22;40536;53.194;5.728;2023-06-22T03:46:58;15.70;99.90
54642;DHT22;40536;53.194;5.728;2023-06-22T03:49:24;15.70;99.90
54642;DHT22;40536;53.194;5.728;2023-06-22T03:51:49;15.70;99.90
54642;DHT22;40536;53.194;5.728;2023-06-22T03:54:15;15.70;99.90
54642;DHT22;40536;53.194;5.728;2023-06-22T03:56:42;15.70;99.90
54642;DHT22;40536;53.194;5.728;2023-06-22T03:59:07;15.70;99.90
54642;DHT22;40536;53.194;5.728;2023-06-22T04:01:34;15.70;99.90
54642;DHT22;40536;53.194;5.728;2023-06-22T04:03:59;15.70;99.90
54642;DHT22;40536;53.194;5.728;2023-06-22T04:06:25;15.70;99.90
54642;DHT22;40536;53.194;5.728;2023-06-22T04:08:51;15.80;99.90
54642;DHT22;40536;53.194;5.728;2023-06-22T04:11:17;15.80;99.90
54642;DHT22;40536;53.194;5.728;2023-06-22T04:13:44;15.90;99.90
54642;DHT22;40536;53.194;5.728;2023-06-22T04:16:09;16.00;99.90
54642;DHT22;40536;53.194;5.728;2023-06-22T04:18:35;16.10;99.90
54642;DHT22;40536;53.194;5.728;2023-06-22T04:21:01;16.10;99.90
54642;DHT22;40536;53.194;5.728;2023-06-22T04:23:27;16.20;99.90
54642;DHT22;40536;53.194;5.728;2023-06-22T04:25:53;16.40;99.90
54642;DHT22;40536;53.194;5.728;2023-06-22T04:28:18;16.40;99.90
54642;DHT22;40536;53.194;5.728;2023-06-22T04:30:44;16.50;99.90
54642;DHT22;40536;53.194;5.728;2023-06-22T04:33:16;16.50;99.90
54642;DHT22;40536;53.194;5.728;2023-06-22T04:35:45;16.50;99.90
54642;DHT22;40536;53.194;5.728;2023-06-22T04:38:12;16.50;99.90
54642;DHT22;40536;53.194;5.728;2023-06-22T04:40:39;16.30;99.90
54642;DHT22;40536;53.194;5.728;2023-06-22T04:43:05;16.60;99.90
54642;DHT22;40536;53.194;5.728;2023-06-22T04:45:32;16.60;99.90
54642;DHT22;40536;53.194;5.728;2023-06-22T04:47:58;16.60;99.90
54642;DHT22;40536;53.194;5.728;2023-06-22T04:50:24;16.60;99.90
54642;DHT22;40536;53.194;5.728;2023-06-22T04:52:51;16.60;99.90
54642;DHT22;40536;53.194;5.728;2023-06-22T04:55:18;16.60;99.90
54642;DHT22;40536;53.194;5.728;2023-06-22T04:57:46;16.70;99.90
54642;DHT22;40536;53.194;5.728;2023-06-22T05:00:19;16.70;99.90
54642;DHT22;40536;53.194;5.728;2023-06-22T05:02:49;16.80;99.90
54642;DHT22;40536;53.194;5.728;2023-06-22T05:05:15;16.90;99.90
54642;DHT22;40536;53.194;5.728;2023-06-22T05:07:45;16.90;99.90
54642;DHT22;40536;53.194;5.728;2023-06-22T05:10:14;17.00;99.90
54642;DHT22;40536;53.194;5.728;2023-06-22T05:12:40;17.20;99.90
54642;DHT22;40536;53.194;5.728;2023-06-22T05:15:07;17.30;99.90
54642;DHT22;40536;53.194;5.728;2023-06-22T05:17:33;17.50;99.90
54642;DHT22;40536;53.194;5.728;2023-06-22T05:19:59;17.60;99.90
54642;DHT22;40536;53.194;5.728;2023-06-22T05:22:25;17.70;99.90
54642;DHT22;40536;53.194;5.728;2023-06-22T05:24:51;17.90;99.90
54642;DHT22;40536;53.194;5.728;2023-06-22T05:27:17;18.10;99.90
54642;DHT22;40536;53.194;5.728;2023-06-22T05:29:42;18.50;99.90
54642;DHT22;40536;53.194;5.728;2023-06-22T05:32:08;18.70;99.90
54642;DHT22;40536;53.194;5.728;2023-06-22T05:34:34;19.10;99.90
54642;DHT22;40536;53.194;5.728;2023-06-22T05:37:00;19.50;99.90
54642;DHT22;40536;53.194;5.728;2023-06-22T05:39:26;19.70;99.90
54642;DHT22;40536;53.194;5.728;2023-06-22T05:41:51;20.00;99.90
54642;DHT22;40536;53.194;5.728;2023-06-22T05:44:18;20.30;99.90
54642;DHT22;40536;53.194;5.728;2023-06-22T05:46:44;20.50;99.90
54642;DHT22;40536;53.194;5.728;2023-06-22T05:49:11;20.70;99.90
54642;DHT22;40536;53.194;5.728;2023-06-22T05:51:37;21.00;99.90
54642;DHT22;40536;53.194;5.728;2023-06-22T05:54:02;21.20;99.90
54642;DHT22;40536;53.194;5.728;2023-06-22T05:56:29;21.50;99.90
54642;DHT22;40536;53.194;5.728;2023-06-22T05:58:54;21.80;99.90
54642;DHT22;40536;53.194;5.728;2023-06-22T06:01:20;22.00;99.90
54642;DHT22;40536;53.194;5.728;2023-06-22T06:03:46;22.30;99.90
54642;DHT22;40536;53.194;5.728;2023-06-22T06:06:12;22.60;99.90
54642;DHT22;40536;53.194;5.728;2023-06-22T06:08:39;22.90;99.90
54642;DHT22;40536;53.194;5.728;2023-06-22T06:11:04;23.10;99.90
54642;DHT22;40536;53.194;5.728;2023-06-22T06:13:30;23.40;99.90
54642;DHT22;40536;53.194;5.728;2023-06-22T06:15:56;23.70;99.90
54642;DHT22;40536;53.194;5.728;2023-06-22T06:18:22;23.70;99.90
54642;DHT22;40536;53.194;5.728;2023-06-22T06:20:48;23.90;99.90
54642;DHT22;40536;53.194;5.728;2023-06-22T06:23:14;24.00;99.90
54642;DHT22;40536;53.194;5.728;2023-06-22T06:25:40;24.20;99.90
54642;DHT22;40536;53.194;5.728;2023-06-22T06:28:06;24.40;99.90
54642;DHT22;40536;53.194;5.728;2023-06-22T06:30:31;24.70;99.90
54642;DHT22;40536;53.194;5.728;2023-06-22T06:32:57;25.00;99.90
54642;DHT22;40536;53.194;5.728;2023-06-22T06:35:23;25.40;99.90
54642;DHT22;40536;53.194;5.728;2023-06-22T06:37:50;25.50;99.90
54642;DHT22;40536;53.194;5.728;2023-06-22T06:40:16;25.60;99.90
54642;DHT22;40536;53.194;5.728;2023-06-22T06:42:44;25.60;99.90
54642;DHT22;40536;53.194;5.728;2023-06-22T06:45:30;25.60;99.90
54642;DHT22;40536;53.194;5.728;2023-06-22T06:47:58;25.70;99.90
54642;DHT22;40536;53.194;5.728;2023-06-22T06:50:24;26.00;99.90
54642;DHT22;40536;53.194;5.728;2023-06-22T06:52:50;26.40;99.90
54642;DHT22;40536;53.194;5.728;2023-06-22T06:55:17;26.80;99.90
54642;DHT22;40536;53.194;5.728;2023-06-22T06:57:43;27.20;99.90
54642;DHT22;40536;53.194;5.728;2023-06-22T07:00:12;27.70;99.90
54642;DHT22;40536;53.194;5.728;2023-06-22T07:02:48;28.00;99.90
54642;DHT22;40536;53.194;5.728;2023-06-22T07:05:17;28.50;99.90
54642;DHT22;40536;53.194;5.728;2023-06-22T07:07:43;28.70;99.90
54642;DHT22;40536;53.194;5.728;2023-06-22T07:10:09;29.00;99.90
54642;DHT22;40536;53.194;5.728;2023-06-22T07:12:34;29.40;99.90
54642;DHT22;40536;53.194;5.728;2023-06-22T07:15:05;29.90;99.90
54642;DHT22;40536;53.194;5.728;2023-06-22T07:17:34;30.10;99.90
54642;DHT22;40536;53.194;5.728;2023-06-22T07:20:00;30.20;99.90
54642;DHT22;40536;53.194;5.728;2023-06-22T07:22:26;30.30;99.90
54642;DHT22;40536;53.194;5.728;2023-06-22T07:24:51;30.60;99.90
54642;DHT22;40536;53.194;5.728;2023-06-22T07:27:17;30.90;99.90
54642;DHT22;40536;53.194;5.728;2023-06-22T07:29:44;31.00;99.90
54642;DHT22;40536;53.194;5.728;2023-06-22T07:32:10;31.30;99.90
54642;DHT22;40536;53.194;5.728;2023-06-22T07:34:37;31.50;99.90
54642;DHT22;40536;53.194;5.728;2023-06-22T07:37:04;31.50;99.90
54642;DHT22;40536;53.194;5.728;2023-06-22T07:39:31;31.80;99.90
54642;DHT22;40536;53.194;5.728;2023-06-22T07:41:57;31.80;99.90
54642;DHT22;40536;53.194;5.728;2023-06-22T07:44:23;31.70;99.90
54642;DHT22;40536;53.194;5.728;2023-06-22T07:46:49;31.60;99.90
54642;DHT22;40536;53.194;5.728;2023-06-22T07:49:14;31.60;99.90
54642;DHT22;40536;53.194;5.728;2023-06-22T07:51:40;31.90;99.90
54642;DHT22;40536;53.194;5.728;2023-06-22T07:54:07;31.90;99.90
54642;DHT22;40536;53.194;5.728;2023-06-22T07:56:35;31.90;99.90
54642;DHT22;40536;53.194;5.728;2023-06-22T07:59:01;31.90;99.90
54642;DHT22;40536;53.194;5.728;2023-06-22T08:01:29;31.80;99.90
54642;DHT22;40536;53.194;5.728;2023-06-22T08:03:54;32.00;99.90
54642;DHT22;40536;53.194;5.728;2023-06-22T08:06:20;32.00;99.90
54642;DHT22;40536;53.194;5.728;2023-06-22T08:08:46;32.10;99.90
54642;DHT22;40536;53.194;5.728;2023-06-22T08:11:17;32.10;99.80
54642;DHT22;40536;53.194;5.728;2023-06-22T08:13:42;31.90;99.30
54642;DHT22;40536;53.194;5.728;2023-06-22T08:16:08;31.90;99.60
54642;DHT22;40536;53.194;5.728;2023-06-22T08:18:34;32.00;99.90
54642;DHT22;40536;53.194;5.728;2023-06-22T08:20:59;32.20;99.70
54642;DHT22;40536;53.194;5.728;2023-06-22T08:23:25;32.40;99.80
54642;DHT22;40536;53.194;5.728;2023-06-22T08:25:53;32.50;99.70
54642;DHT22;40536;53.194;5.728;2023-06-22T08:28:19;32.50;99.00
54642;DHT22;40536;53.194;5.728;2023-06-22T08:30:45;32.30;99.30
54642;DHT22;40536;53.194;5.728;2023-06-22T08:33:10;32.60;99.70
54642;DHT22;40536;53.194;5.728;2023-06-22T08:35:36;32.70;99.40
54642;DHT22;40536;53.194;5.728;2023-06-22T08:38:02;32.90;99.20
54642;DHT22;40536;53.194;5.728;2023-06-22T08:40:27;32.70;98.70
54642;DHT22;40536;53.194;5.728;2023-06-22T08:42:54;33.10;99.00
54642;DHT22;40536;53.194;5.728;2023-06-22T08:45:20;33.20;98.60
54642;DHT22;40536;53.194;5.728;2023-06-22T08:47:46;33.30;98.20
54642;DHT22;40536;53.194;5.728;2023-06-22T08:50:12;33.50;98.30
54642;DHT22;40536;53.194;5.728;2023-06-22T08:52:40;33.40;98.20
54642;DHT22;40536;53.194;5.728;2023-06-22T08:55:09;33.80;97.80
54642;DHT22;40536;53.194;5.728;2023-06-22T08:57:34;34.30;97.80
54642;DHT22;40536;53.194;5.728;2023-06-22T09:00:04;34.10;96.90
54642;DHT22;40536;53.194;5.728;2023-06-22T09:02:30;34.40;97.20
54642;DHT22;40536;53.194;5.728;2023-06-22T09:04:57;34.50;97.20
54642;DHT22;40536;53.194;5.728;2023-06-22T09:07:23;35.00;97.10
54642;DHT22;40536;53.194;5.728;2023-06-22T09:09:50;35.40;96.70
54642;DHT22;40536;53.194;5.728;2023-06-22T09:12:16;35.60;96.30
54642;DHT22;40536;53.194;5.728;2023-06-22T09:14:42;35.80;96.20
54642;DHT22;40536;53.194;5.728;2023-06-22T09:17:08;36.30;95.90
54642;DHT22;40536;53.194;5.728;2023-06-22T09:19:33;36.30;95.50
54642;DHT22;40536;53.194;5.728;2023-06-22T09:21:59;36.50;95.60
54642;DHT22;40536;53.194;5.728;2023-06-22T09:24:25;36.90;95.50
54642;DHT22;40536;53.194;5.728;2023-06-22T09:26:51;36.70;95.30
54642;DHT22;40536;53.194;5.728;2023-06-22T09:29:16;36.90;94.90
54642;DHT22;40536;53.194;5.728;2023-06-22T09:31:42;36.70;93.70
54642;DHT22;40536;53.194;5.728;2023-06-22T09:34:08;36.70;94.30
54642;DHT22;40536;53.194;5.728;2023-06-22T09:36:33;36.70;94.40
54642;DHT22;40536;53.194;5.728;2023-06-22T09:38:59;36.60;94.30
54642;DHT22;40536;53.194;5.728;2023-06-22T09:41:31;36.30;94.30
54642;DHT22;40536;53.194;5.728;2023-06-22T09:43:56;36.20;94.20
54642;DHT22;40536;53.194;5.728;2023-06-22T09:46:22;36.30;93.20
54642;DHT22;40536;53.194;5.728;2023-06-22T09:48:50;36.20;93.30
54642;DHT22;40536;53.194;5.728;2023-06-22T09:51:16;36.50;93.60
54642;DHT22;40536;53.194;5.728;2023-06-22T09:53:41;36.70;93.70
54642;DHT22;40536;53.194;5.728;2023-06-22T09:56:10;36.80;93.60
54642;DHT22;40536;53.194;5.728;2023-06-22T09:58:44;37.00;93.40
54642;DHT22;40536;53.194;5.728;2023-06-22T10:01:11;36.80;93.10
54642;DHT22;40536;53.194;5.728;2023-06-22T10:03:37;36.80;93.60
54642;DHT22;40536;53.194;5.728;2023-06-22T10:06:03;36.80;93.60
54642;DHT22;40536;53.194;5.728;2023-06-22T10:08:29;36.60;93.90
54642;DHT22;40536;53.194;5.728;2023-06-22T10:10:54;36.60;93.30
54642;DHT22;40536;53.194;5.728;2023-06-22T10:13:20;36.00;93.50
54642;DHT22;40536;53.194;5.728;2023-06-22T10:15:46;35.80;93.60
54642;DHT22;40536;53.194;5.728;2023-06-22T10:18:18;35.60;93.70
54642;DHT22;40536;53.194;5.728;2023-06-22T10:20:48;35.50;93.60
54642;DHT22;40536;53.194;5.728;2023-06-22T10:23:17;35.00;93.50
54642;DHT22;40536;53.194;5.728;2023-06-22T10:25:42;34.00;94.00
54642;DHT22;40536;53.194;5.728;2023-06-22T10:28:08;33.80;94.30
54642;DHT22;40536;53.194;5.728;2023-06-22T10:30:34;33.90;94.70
54642;DHT22;40536;53.194;5.728;2023-06-22T10:32:59;33.80;94.50
54642;DHT22;40536;53.194;5.728;2023-06-22T10:35:25;33.30;94.30
54642;DHT22;40536;53.194;5.728;2023-06-22T10:37:50;32.90;94.60
54642;DHT22;40536;53.194;5.728;2023-06-22T10:40:17;33.00;94.80
54642;DHT22;40536;53.194;5.728;2023-06-22T10:42:44;32.50;94.70
54642;DHT22;40536;53.194;5.728;2023-06-22T10:45:10;32.10;94.80
54642;DHT22;40536;53.194;5.728;2023-06-22T10:47:36;31.90;95.20
54642;DHT22;40536;53.194;5.728;2023-06-22T10:50:03;32.10;95.40
54642;DHT22;40536;53.194;5.728;2023-06-22T10:52:29;32.50;95.20
54642;DHT22;40536;53.194;5.728;2023-06-22T10:54:55;32.50;94.60
54642;DHT22;40536;53.194;5.728;2023-06-22T10:57:21;32.60;95.00
54642;DHT22;40536;53.194;5.728;2023-06-22T10:59:48;33.00;95.20
54642;DHT22;40536;53.194;5.728;2023-06-22T11:02:13;33.50;95.10
54642;DHT22;40536;53.194;5.728;2023-06-22T11:04:39;33.60;94.90
54642;DHT22;40536;53.194;5.728;2023-06-22T11:07:05;33.60;94.60
54642;DHT22;40536;53.194;5.728;2023-06-22T11:09:31;33.90;94.60
54642;DHT22;40536;53.194;5.728;2023-06-22T11:11:57;34.20;94.50
54642;DHT22;40536;53.194;5.728;2023-06-22T11:14:24;34.30;94.60
54642;DHT22;40536;53.194;5.728;2023-06-22T11:16:50;34.10;94.50
54642;DHT22;40536;53.194;5.728;2023-06-22T11:19:16;34.20;94.60
54642;DHT22;40536;53.194;5.728;2023-06-22T11:21:42;34.30;94.90
54642;DHT22;40536;53.194;5.728;2023-06-22T11:24:07;34.30;94.60
54642;DHT22;40536;53.194;5.728;2023-06-22T11:26:33;33.40;94.80
54642;DHT22;40536;53.194;5.728;2023-06-22T11:28:59;32.70;95.20
54642;DHT22;40536;53.194;5.728;2023-06-22T11:31:25;32.30;95.50
54642;DHT22;40536;53.194;5.728;2023-06-22T11:33:50;32.00;95.90
54642;DHT22;40536;53.194;5.728;2023-06-22T11:36:16;31.80;96.10
54642;DHT22;40536;53.194;5.728;2023-06-22T11:38:43;31.90;96.20
54642;DHT22;40536;53.194;5.728;2023-06-22T11:41:09;32.10;96.50
54642;DHT22;40536;53.194;5.728;2023-06-22T11:43:36;32.50;96.40
54642;DHT22;40536;53.194;5.728;2023-06-22T11:46:05;32.80;96.10
54642;DHT22;40536;53.194;5.728;2023-06-22T11:48:31;33.00;95.90
54642;DHT22;40536;53.194;5.728;2023-06-22T11:50:57;33.00;95.50
54642;DHT22;40536;53.194;5.728;2023-06-22T11:53:26;32.60;95.60
54642;DHT22;40536;53.194;5.728;2023-06-22T11:55:52;32.60;95.60
54642;DHT22;40536;53.194;5.728;2023-06-22T11:58:19;32.70;95.80
54642;DHT22;40536;53.194;5.728;2023-06-22T12:00:45;33.20;95.50
54642;DHT22;40536;53.194;5.728;2023-06-22T12:03:11;33.30;95.50
54642;DHT22;40536;53.194;5.728;2023-06-22T12:05:38;33.20;95.00
54642;DHT22;40536;53.194;5.728;2023-06-22T12:08:04;33.10;95.40
54642;DHT22;40536;53.194;5.728;2023-06-22T12:10:30;33.00;95.00
54642;DHT22;40536;53.194;5.728;2023-06-22T12:12:55;32.90;95.20
54642;DHT22;40536;53.194;5.728;2023-06-22T12:15:23;33.00;94.70
54642;DHT22;40536;53.194;5.728;2023-06-22T12:17:48;32.80;94.70
54642;DHT22;40536;53.194;5.728;2023-06-22T12:20:14;32.60;95.10
54642;DHT22;40536;53.194;5.728;2023-06-22T12:22:41;32.40;95.30
54642;DHT22;40536;53.194;5.728;2023-06-22T12:25:10;31.90;94.80
54642;DHT22;40536;53.194;5.728;2023-06-22T12:27:36;31.70;95.30
54642;DHT22;40536;53.194;5.728;2023-06-22T12:30:04;31.50;95.50
54642;DHT22;40536;53.194;5.728;2023-06-22T12:32:30;31.40;95.60
54642;DHT22;40536;53.194;5.728;2023-06-22T12:34:56;31.30;95.60
54642;DHT22;40536;53.194;5.728;2023-06-22T12:37:22;31.10;95.40
54642;DHT22;40536;53.194;5.728;2023-06-22T12:39:48;30.80;95.30
54642;DHT22;40536;53.194;5.728;2023-06-22T12:42:14;30.60;95.40
54642;DHT22;40536;53.194;5.728;2023-06-22T12:44:40;30.30;95.20
54642;DHT22;40536;53.194;5.728;2023-06-22T12:47:06;30.20;95.70
54642;DHT22;40536;53.194;5.728;2023-06-22T12:49:34;29.90;95.90
54642;DHT22;40536;53.194;5.728;2023-06-22T12:52:00;29.70;95.90
54642;DHT22;40536;53.194;5.728;2023-06-22T12:54:26;29.40;95.40
54642;DHT22;40536;53.194;5.728;2023-06-22T12:56:52;29.20;95.80
54642;DHT22;40536;53.194;5.728;2023-06-22T12:59:18;28.90;95.70
54642;DHT22;40536;53.194;5.728;2023-06-22T13:01:44;28.70;95.90
54642;DHT22;40536;53.194;5.728;2023-06-22T13:04:11;28.60;96.10
54642;DHT22;40536;53.194;5.728;2023-06-22T13:06:40;28.50;96.30
54642;DHT22;40536;53.194;5.728;2023-06-22T13:09:06;28.50;96.60
54642;DHT22;40536;53.194;5.728;2023-06-22T13:11:32;28.40;96.50
54642;DHT22;40536;53.194;5.728;2023-06-22T13:13:57;28.20;96.40
54642;DHT22;40536;53.194;5.728;2023-06-22T13:16:23;28.10;96.80
54642;DHT22;40536;53.194;5.728;2023-06-22T13:18:48;27.70;96.70
54642;DHT22;40536;53.194;5.728;2023-06-22T13:21:14;27.50;96.80
54642;DHT22;40536;53.194;5.728;2023-06-22T13:23:40;27.30;97.30
54642;DHT22;40536;53.194;5.728;2023-06-22T13:26:07;27.10;97.40
54642;DHT22;40536;53.194;5.728;2023-06-22T13:28:33;27.10;97.30
54642;DHT22;40536;53.194;5.728;2023-06-22T13:30:58;26.90;97.10
54642;DHT22;40536;53.194;5.728;2023-06-22T13:33:24;26.80;96.90
54642;DHT22;40536;53.194;5.728;2023-06-22T13:35:50;26.70;97.30
54642;DHT22;40536;53.194;5.728;2023-06-22T13:38:15;26.60;97.20
54642;DHT22;40536;53.194;5.728;2023-06-22T13:40:42;26.40;97.30
54642;DHT22;40536;53.194;5.728;2023-06-22T13:43:08;26.30;97.10
54642;DHT22;40536;53.194;5.728;2023-06-22T13:45:34;26.10;97.20
54642;DHT22;40536;53.194;5.728;2023-06-22T13:48:00;26.00;97.40
54642;DHT22;40536;53.194;5.728;2023-06-22T13:50:25;26.00;97.30
54642;DHT22;40536;53.194;5.728;2023-06-22T13:52:51;26.00;97.10
54642;DHT22;40536;53.194;5.728;2023-06-22T13:55:17;25.80;97.60
54642;DHT22;40536;53.194;5.728;2023-06-22T13:57:45;25.80;98.10
54642;DHT22;40536;53.194;5.728;2023-06-22T14:00:11;25.80;97.90
54642;DHT22;40536;53.194;5.728;2023-06-22T14:02:40;25.80;98.50
54642;DHT22;40536;53.194;5.728;2023-06-22T14:05:07;25.60;98.40
54642;DHT22;40536;53.194;5.728;2023-06-22T14:07:33;25.50;99.00
54642;DHT22;40536;53.194;5.728;2023-06-22T14:10:00;25.40;98.60
54642;DHT22;40536;53.194;5.728;2023-06-22T14:12:26;25.20;98.60
54642;DHT22;40536;53.194;5.728;2023-06-22T14:14:52;25.00;99.20
54642;DHT22;40536;53.194;5.728;2023-06-22T14:17:18;24.90;99.40
54642;DHT22;40536;53.194;5.728;2023-06-22T14:19:49;24.90;99.50
54642;DHT22;40536;53.194;5.728;2023-06-22T14:22:17;24.70;99.20
54642;DHT22;40536;53.194;5.728;2023-06-22T14:24:43;24.60;99.40
54642;DHT22;40536;53.194;5.728;2023-06-22T14:27:08;24.40;99.30
54642;DHT22;40536;53.194;5.728;2023-06-22T14:29:35;24.30;99.30
54642;DHT22;40536;53.194;5.728;2023-06-22T14:32:00;24.10;99.60
54642;DHT22;40536;53.194;5.728;2023-06-22T14:34:26;24.00;99.90
54642;DHT22;40536;53.194;5.728;2023-06-22T14:36:52;23.80;99.90
54642;DHT22;40536;53.194;5.728;2023-06-22T14:39:17;23.70;99.90
54642;DHT22;40536;53.194;5.728;2023-06-22T14:41:43;23.60;99.90
54642;DHT22;40536;53.194;5.728;2023-06-22T14:44:09;23.70;99.90
54642;DHT22;40536;53.194;5.728;2023-06-22T14:46:35;23.70;99.90
54642;DHT22;40536;53.194;5.728;2023-06-22T14:49:01;23.70;99.90
54642;DHT22;40536;53.194;5.728;2023-06-22T14:51:26;23.70;99.90
54642;DHT22;40536;53.194;5.728;2023-06-22T14:53:52;23.70;99.90
54642;DHT22;40536;53.194;5.728;2023-06-22T14:56:18;23.60;99.90
54642;DHT22;40536;53.194;5.728;2023-06-22T14:58:44;23.60;99.90
54642;DHT22;40536;53.194;5.728;2023-06-22T15:01:12;23.70;99.90
54642;DHT22;40536;53.194;5.728;2023-06-22T15:03:38;23.70;99.90
54642;DHT22;40536;53.194;5.728;2023-06-22T15:06:04;23.80;99.90
54642;DHT22;40536;53.194;5.728;2023-06-22T15:08:30;23.90;99.90
54642;DHT22;40536;53.194;5.728;2023-06-22T15:10:58;23.90;99.90
54642;DHT22;40536;53.194;5.728;2023-06-22T15:13:24;23.90;99.90
54642;DHT22;40536;53.194;5.728;2023-06-22T15:15:51;23.90;99.90
54642;DHT22;40536;53.194;5.728;2023-06-22T15:18:17;23.90;99.90
54642;DHT22;40536;53.194;5.728;2023-06-22T15:20:43;23.80;99.90
54642;DHT22;40536;53.194;5.728;2023-06-22T15:23:11;23.70;99.90
54642;DHT22;40536;53.194;5.728;2023-06-22T15:25:37;23.70;99.90
54642;DHT22;40536;53.194;5.728;2023-06-22T15:28:03;23.60;99.90
54642;DHT22;40536;53.194;5.728;2023-06-22T15:30:29;23.60;99.90